sensor_id;sensor_type;location;lat;lon;timestamp;P1;durP1;ratioP1;P2;durP2;ratioP2
51995;SDS011;38010;53.264;6.592;2023-10-13T00:01:20;10.10;;;5.47;;
51995;SDS011;38010;53.264;6.592;2023-10-13T00:03:46;9.30;;;5.68;;
51995;SDS011;38010;53.264;6.592;2023-10-13T00:06:12;8.18;;;5.57;;
51995;SDS011;38010;53.264;6.592;2023-10-13T00:08:38;9.55;;;5.47;;
51995;SDS011;38010;53.264;6.592;2023-10-13T00:11:05;8.05;;;5.30;;
51995;SDS011;38010;53.264;6.592;2023-10-13T00:13:34;9.27;;;5.53;;
51995;SDS011;38010;53.264;6.592;2023-10-13T00:16:08;9.55;;;5.65;;
51995;SDS011;38010;53.264;6.592;2023-10-13T00:18:42;9.57;;;6.07;;
51995;SDS011;38010;53.264;6.592;2023-10-13T00:21:09;8.95;;;5.90;;
51995;SDS011;38010;53.264;6.592;2023-10-13T00:23:42;8.40;;;5.50;;
51995;SDS011;38010;53.264;6.592;2023-10-13T00:26:18;9.65;;;5.20;;
51995;SDS011;38010;53.264;6.592;2023-10-13T00:28:44;10.65;;;5.80;;
51995;SDS011;38010;53.264;6.592;2023-10-13T00:31:13;9.32;;;5.70;;
51995;SDS011;38010;53.264;6.592;2023-10-13T00:33:39;8.25;;;5.53;;
51995;SDS011;38010;53.264;6.592;2023-10-13T00:36:07;8.75;;;6.32;;
51995;SDS011;38010;53.264;6.592;2023-10-13T00:38:34;10.02;;;6.18;;
51995;SDS011;38010;53.264;6.592;2023-10-13T00:41:02;9.95;;;6.43;;
51995;SDS011;38010;53.264;6.592;2023-10-13T00:43:45;8.10;;;5.93;;
51995;SDS011;38010;53.264;6.592;2023-10-13T00:46:29;9.20;;;6.55;;
51995;SDS011;38010;53.264;6.592;2023-10-13T00:48:58;9.15;;;6.68;;
51995;SDS011;38010;53.264;6.592;2023-10-13T00:51:24;10.45;;;5.25;;
51995;SDS011;38010;53.264;6.592;2023-10-13T00:54:04;9.07;;;5.93;;
51995;SDS011;38010;53.264;6.592;2023-10-13T00:56:37;11.82;;;6.07;;
51995;SDS011;38010;53.264;6.592;2023-10-13T00:59:06;10.32;;;6.68;;
51995;SDS011;38010;53.264;6.592;2023-10-13T01:01:35;10.05;;;6.70;;
51995;SDS011;38010;53.264;6.592;2023-10-13T01:04:01;10.52;;;7.43;;
51995;SDS011;38010;53.264;6.592;2023-10-13T01:06:30;10.05;;;6.60;;
51995;SDS011;38010;53.264;6.592;2023-10-13T01:09:06;11.38;;;7.22;;
51995;SDS011;38010;53.264;6.592;2023-10-13T01:11:42;10.13;;;6.05;;
51995;SDS011;38010;53.264;6.592;2023-10-13T01:14:09;13.45;;;7.13;;
51995;SDS011;38010;53.264;6.592;2023-10-13T01:16:40;10.73;;;7.47;;
51995;SDS011;38010;53.264;6.592;2023-10-13T01:19:12;9.88;;;7.03;;
51995;SDS011;38010;53.264;6.592;2023-10-13T01:21:39;9.32;;;6.18;;
51995;SDS011;38010;53.264;6.592;2023-10-13T01:24:06;10.65;;;7.60;;
51995;SDS011;38010;53.264;6.592;2023-10-13T01:26:36;9.88;;;7.55;;
51995;SDS011;38010;53.264;6.592;2023-10-13T01:29:06;10.50;;;7.50;;
51995;SDS011;38010;53.264;6.592;2023-10-13T01:31:43;9.40;;;6.38;;
51995;SDS011;38010;53.264;6.592;2023-10-13T01:34:15;10.25;;;6.75;;
51995;SDS011;38010;53.264;6.592;2023-10-13T01:36:57;9.70;;;7.05;;
51995;SDS011;38010;53.264;6.592;2023-10-13T01:39:30;9.73;;;6.40;;
51995;SDS011;38010;53.264;6.592;2023-10-13T01:41:56;10.55;;;7.38;;
51995;SDS011;38010;53.264;6.592;2023-10-13T01:44:23;9.70;;;6.40;;
51995;SDS011;38010;53.264;6.592;2023-10-13T01:46:49;10.23;;;6.55;;
51995;SDS011;38010;53.264;6.592;2023-10-13T01:49:16;10.07;;;6.93;;
51995;SDS011;38010;53.264;6.592;2023-10-13T01:51:42;9.27;;;7.10;;
51995;SDS011;38010;53.264;6.592;2023-10-13T01:54:08;8.82;;;6.45;;
51995;SDS011;38010;53.264;6.592;2023-10-13T01:56:38;9.93;;;7.18;;
51995;SDS011;38010;53.264;6.592;2023-10-13T01:59:11;9.43;;;6.95;;
51995;SDS011;38010;53.264;6.592;2023-10-13T02:01:37;9.85;;;6.72;;
51995;SDS011;38010;53.264;6.592;2023-10-13T02:04:04;9.40;;;6.22;;
51995;SDS011;38010;53.264;6.592;2023-10-13T02:06:32;9.88;;;6.82;;
51995;SDS011;38010;53.264;6.592;2023-10-13T02:09:03;10.27;;;6.68;;
51995;SDS011;38010;53.264;6.592;2023-10-13T02:11:38;9.48;;;6.90;;
51995;SDS011;38010;53.264;6.592;2023-10-13T02:14:04;8.93;;;6.40;;
51995;SDS011;38010;53.264;6.592;2023-10-13T02:16:30;9.07;;;6.25;;
51995;SDS011;38010;53.264;6.592;2023-10-13T02:18:57;9.50;;;6.47;;
51995;SDS011;38010;53.264;6.592;2023-10-13T02:21:29;7.43;;;5.70;;
51995;SDS011;38010;53.264;6.592;2023-10-13T02:23:56;8.23;;;5.82;;
51995;SDS011;38010;53.264;6.592;2023-10-13T02:26:31;10.18;;;7.00;;
51995;SDS011;38010;53.264;6.592;2023-10-13T02:29:03;8.18;;;5.30;;
51995;SDS011;38010;53.264;6.592;2023-10-13T02:31:36;8.95;;;5.90;;
51995;SDS011;38010;53.264;6.592;2023-10-13T02:34:02;8.88;;;5.55;;
51995;SDS011;38010;53.264;6.592;2023-10-13T02:36:38;9.70;;;5.57;;
51995;SDS011;38010;53.264;6.592;2023-10-13T02:39:17;9.18;;;5.85;;
51995;SDS011;38010;53.264;6.592;2023-10-13T02:41:51;10.60;;;6.05;;
51995;SDS011;38010;53.264;6.592;2023-10-13T02:44:18;9.15;;;5.45;;
51995;SDS011;38010;53.264;6.592;2023-10-13T02:46:56;7.43;;;5.78;;
51995;SDS011;38010;53.264;6.592;2023-10-13T02:49:24;10.52;;;6.03;;
51995;SDS011;38010;53.264;6.592;2023-10-13T02:52:02;8.15;;;5.22;;
51995;SDS011;38010;53.264;6.592;2023-10-13T02:54:33;7.10;;;5.13;;
51995;SDS011;38010;53.264;6.592;2023-10-13T02:57:05;7.32;;;5.07;;
51995;SDS011;38010;53.264;6.592;2023-10-13T02:59:32;6.72;;;4.85;;
51995;SDS011;38010;53.264;6.592;2023-10-13T03:02:22;8.85;;;5.80;;
51995;SDS011;38010;53.264;6.592;2023-10-13T03:04:56;7.30;;;5.03;;
51995;SDS011;38010;53.264;6.592;2023-10-13T03:07:33;8.40;;;4.72;;
51995;SDS011;38010;53.264;6.592;2023-10-13T03:10:01;6.53;;;4.68;;
51995;SDS011;38010;53.264;6.592;2023-10-13T03:12:35;7.35;;;4.60;;
51995;SDS011;38010;53.264;6.592;2023-10-13T03:15:01;7.57;;;4.50;;
51995;SDS011;38010;53.264;6.592;2023-10-13T03:17:43;5.63;;;4.28;;
51995;SDS011;38010;53.264;6.592;2023-10-13T03:20:10;6.25;;;3.88;;
51995;SDS011;38010;53.264;6.592;2023-10-13T03:22:38;6.95;;;3.95;;
51995;SDS011;38010;53.264;6.592;2023-10-13T03:25:04;6.30;;;4.20;;
51995;SDS011;38010;53.264;6.592;2023-10-13T03:27:32;6.43;;;3.90;;
51995;SDS011;38010;53.264;6.592;2023-10-13T03:30:13;7.00;;;4.03;;
51995;SDS011;38010;53.264;6.592;2023-10-13T03:32:40;6.15;;;3.63;;
51995;SDS011;38010;53.264;6.592;2023-10-13T03:35:18;6.78;;;3.95;;
51995;SDS011;38010;53.264;6.592;2023-10-13T03:37:55;8.45;;;3.83;;
51995;SDS011;38010;53.264;6.592;2023-10-13T03:40:22;7.47;;;5.03;;
51995;SDS011;38010;53.264;6.592;2023-10-13T03:42:48;5.43;;;4.05;;
51995;SDS011;38010;53.264;6.592;2023-10-13T03:45:33;6.35;;;4.07;;
51995;SDS011;38010;53.264;6.592;2023-10-13T03:48:23;9.23;;;5.00;;
51995;SDS011;38010;53.264;6.592;2023-10-13T03:51:01;5.82;;;3.92;;
51995;SDS011;38010;53.264;6.592;2023-10-13T03:53:40;6.65;;;4.53;;
51995;SDS011;38010;53.264;6.592;2023-10-13T03:56:17;6.63;;;4.57;;
51995;SDS011;38010;53.264;6.592;2023-10-13T03:58:54;6.95;;;4.72;;
51995;SDS011;38010;53.264;6.592;2023-10-13T04:01:23;6.38;;;4.32;;
51995;SDS011;38010;53.264;6.592;2023-10-13T04:04:08;7.13;;;4.40;;
51995;SDS011;38010;53.264;6.592;2023-10-13T04:06:41;7.53;;;4.18;;
51995;SDS011;38010;53.264;6.592;2023-10-13T04:09:22;5.97;;;4.05;;
51995;SDS011;38010;53.264;6.592;2023-10-13T04:11:54;5.30;;;4.15;;
51995;SDS011;38010;53.264;6.592;2023-10-13T04:14:26;7.45;;;5.00;;
51995;SDS011;38010;53.264;6.592;2023-10-13T04:17:11;6.60;;;3.95;;
51995;SDS011;38010;53.264;6.592;2023-10-13T04:19:41;5.35;;;3.80;;
51995;SDS011;38010;53.264;6.592;2023-10-13T04:22:26;6.07;;;4.22;;
51995;SDS011;38010;53.264;6.592;2023-10-13T04:25:11;6.05;;;4.03;;
51995;SDS011;38010;53.264;6.592;2023-10-13T04:27:56;6.95;;;4.28;;
51995;SDS011;38010;53.264;6.592;2023-10-13T04:30:58;6.30;;;3.85;;
51995;SDS011;38010;53.264;6.592;2023-10-13T04:33:32;6.38;;;3.50;;
51995;SDS011;38010;53.264;6.592;2023-10-13T04:36:21;7.82;;;4.13;;
51995;SDS011;38010;53.264;6.592;2023-10-13T04:38:54;5.72;;;4.15;;
51995;SDS011;38010;53.264;6.592;2023-10-13T04:41:30;6.18;;;3.63;;
51995;SDS011;38010;53.264;6.592;2023-10-13T04:46:53;5.05;;;3.30;;
51995;SDS011;38010;53.264;6.592;2023-10-13T04:49:33;4.90;;;3.92;;
51995;SDS011;38010;53.264;6.592;2023-10-13T04:52:00;4.95;;;3.20;;
51995;SDS011;38010;53.264;6.592;2023-10-13T04:54:44;5.20;;;3.45;;
51995;SDS011;38010;53.264;6.592;2023-10-13T04:59:49;3.58;;;2.75;;
51995;SDS011;38010;53.264;6.592;2023-10-13T05:02:34;5.45;;;3.38;;
51995;SDS011;38010;53.264;6.592;2023-10-13T05:05:00;5.35;;;3.95;;
51995;SDS011;38010;53.264;6.592;2023-10-13T05:07:45;6.05;;;2.55;;
51995;SDS011;38010;53.264;6.592;2023-10-13T05:10:30;4.03;;;2.47;;
51995;SDS011;38010;53.264;6.592;2023-10-13T05:13:15;4.68;;;3.15;;
51995;SDS011;38010;53.264;6.592;2023-10-13T05:16:00;3.35;;;2.50;;
51995;SDS011;38010;53.264;6.592;2023-10-13T05:18:44;5.90;;;2.95;;
51995;SDS011;38010;53.264;6.592;2023-10-13T05:21:29;5.07;;;2.85;;
51995;SDS011;38010;53.264;6.592;2023-10-13T05:24:14;4.63;;;2.85;;
51995;SDS011;38010;53.264;6.592;2023-10-13T05:26:59;4.28;;;3.40;;
51995;SDS011;38010;53.264;6.592;2023-10-13T05:30:03;4.15;;;2.90;;
51995;SDS011;38010;53.264;6.592;2023-10-13T05:32:48;3.67;;;2.85;;
51995;SDS011;38010;53.264;6.592;2023-10-13T05:35:33;3.63;;;2.67;;
51995;SDS011;38010;53.264;6.592;2023-10-13T05:38:17;5.05;;;2.45;;
51995;SDS011;38010;53.264;6.592;2023-10-13T05:41:03;3.97;;;2.97;;
51995;SDS011;38010;53.264;6.592;2023-10-13T05:43:48;3.25;;;2.25;;
51995;SDS011;38010;53.264;6.592;2023-10-13T05:46:33;3.67;;;2.58;;
51995;SDS011;38010;53.264;6.592;2023-10-13T05:49:02;3.65;;;2.38;;
51995;SDS011;38010;53.264;6.592;2023-10-13T05:51:31;3.38;;;2.40;;
51995;SDS011;38010;53.264;6.592;2023-10-13T05:54:02;4.03;;;2.10;;
51995;SDS011;38010;53.264;6.592;2023-10-13T05:59:28;4.63;;;2.45;;
51995;SDS011;38010;53.264;6.592;2023-10-13T06:02:14;4.55;;;2.40;;
51995;SDS011;38010;53.264;6.592;2023-10-13T06:05:02;5.63;;;2.72;;
51995;SDS011;38010;53.264;6.592;2023-10-13T06:07:47;3.08;;;2.03;;
51995;SDS011;38010;53.264;6.592;2023-10-13T06:10:32;3.80;;;2.40;;
51995;SDS011;38010;53.264;6.592;2023-10-13T06:13:17;3.15;;;2.45;;
51995;SDS011;38010;53.264;6.592;2023-10-13T06:16:09;4.10;;;1.85;;
51995;SDS011;38010;53.264;6.592;2023-10-13T06:18:53;3.28;;;2.33;;
51995;SDS011;38010;53.264;6.592;2023-10-13T06:21:38;4.35;;;2.35;;
51995;SDS011;38010;53.264;6.592;2023-10-13T06:24:23;4.18;;;2.15;;
51995;SDS011;38010;53.264;6.592;2023-10-13T06:27:08;3.67;;;2.38;;
51995;SDS011;38010;53.264;6.592;2023-10-13T06:29:53;3.22;;;2.03;;
51995;SDS011;38010;53.264;6.592;2023-10-13T06:32:19;4.63;;;2.35;;
51995;SDS011;38010;53.264;6.592;2023-10-13T06:34:45;2.83;;;1.77;;
51995;SDS011;38010;53.264;6.592;2023-10-13T06:37:13;2.88;;;2.13;;
51995;SDS011;38010;53.264;6.592;2023-10-13T06:40:12;2.35;;;1.42;;
51995;SDS011;38010;53.264;6.592;2023-10-13T06:42:57;4.68;;;1.85;;
51995;SDS011;38010;53.264;6.592;2023-10-13T06:45:42;2.47;;;1.67;;
51995;SDS011;38010;53.264;6.592;2023-10-13T06:48:15;3.35;;;1.77;;
51995;SDS011;38010;53.264;6.592;2023-10-13T06:50:49;3.33;;;2.28;;
51995;SDS011;38010;53.264;6.592;2023-10-13T06:53:17;3.00;;;1.70;;
51995;SDS011;38010;53.264;6.592;2023-10-13T06:55:44;4.55;;;2.42;;
51995;SDS011;38010;53.264;6.592;2023-10-13T06:58:12;3.00;;;1.98;;
51995;SDS011;38010;53.264;6.592;2023-10-13T07:00:42;2.67;;;2.05;;
51995;SDS011;38010;53.264;6.592;2023-10-13T07:03:24;2.20;;;1.60;;
51995;SDS011;38010;53.264;6.592;2023-10-13T07:05:50;2.42;;;1.63;;
51995;SDS011;38010;53.264;6.592;2023-10-13T07:08:17;3.47;;;1.60;;
51995;SDS011;38010;53.264;6.592;2023-10-13T07:10:52;2.13;;;1.60;;
51995;SDS011;38010;53.264;6.592;2023-10-13T07:13:30;3.03;;;1.70;;
51995;SDS011;38010;53.264;6.592;2023-10-13T07:15:56;3.60;;;1.75;;
51995;SDS011;38010;53.264;6.592;2023-10-13T07:18:33;2.63;;;1.65;;
51995;SDS011;38010;53.264;6.592;2023-10-13T07:21:08;4.00;;;1.65;;
51995;SDS011;38010;53.264;6.592;2023-10-13T07:23:37;4.60;;;1.70;;
51995;SDS011;38010;53.264;6.592;2023-10-13T07:26:06;7.72;;;2.10;;
51995;SDS011;38010;53.264;6.592;2023-10-13T07:28:33;3.35;;;1.83;;
51995;SDS011;38010;53.264;6.592;2023-10-13T07:31:11;6.20;;;2.28;;
51995;SDS011;38010;53.264;6.592;2023-10-13T07:33:37;5.28;;;2.15;;
51995;SDS011;38010;53.264;6.592;2023-10-13T07:36:06;7.07;;;2.20;;
51995;SDS011;38010;53.264;6.592;2023-10-13T07:38:51;7.70;;;2.13;;
51995;SDS011;38010;53.264;6.592;2023-10-13T07:41:34;10.60;;;2.42;;
51995;SDS011;38010;53.264;6.592;2023-10-13T07:44:01;6.78;;;2.47;;
51995;SDS011;38010;53.264;6.592;2023-10-13T07:46:30;4.15;;;1.90;;
51995;SDS011;38010;53.264;6.592;2023-10-13T07:49:00;8.32;;;2.67;;
51995;SDS011;38010;53.264;6.592;2023-10-13T07:51:36;7.75;;;2.80;;
51995;SDS011;38010;53.264;6.592;2023-10-13T07:54:10;20.58;;;3.03;;
51995;SDS011;38010;53.264;6.592;2023-10-13T07:56:38;8.20;;;2.53;;
51995;SDS011;38010;53.264;6.592;2023-10-13T07:59:05;8.52;;;2.45;;
51995;SDS011;38010;53.264;6.592;2023-10-13T08:01:34;10.43;;;2.85;;
51995;SDS011;38010;53.264;6.592;2023-10-13T08:04:00;5.28;;;2.22;;
51995;SDS011;38010;53.264;6.592;2023-10-13T08:06:39;7.47;;;2.75;;
51995;SDS011;38010;53.264;6.592;2023-10-13T08:09:07;7.60;;;2.78;;
51995;SDS011;38010;53.264;6.592;2023-10-13T08:11:34;5.95;;;2.70;;
51995;SDS011;38010;53.264;6.592;2023-10-13T08:14:02;8.57;;;2.50;;
51995;SDS011;38010;53.264;6.592;2023-10-13T08:16:42;8.95;;;3.03;;
51995;SDS011;38010;53.264;6.592;2023-10-13T08:19:18;16.13;;;4.35;;
51995;SDS011;38010;53.264;6.592;2023-10-13T08:21:45;148.23;;;55.47;;
51995;SDS011;38010;53.264;6.592;2023-10-13T08:24:17;135.20;;;52.25;;
51995;SDS011;38010;53.264;6.592;2023-10-13T08:27:02;128.63;;;48.42;;
51995;SDS011;38010;53.264;6.592;2023-10-13T08:29:59;115.82;;;44.88;;
51995;SDS011;38010;53.264;6.592;2023-10-13T08:32:44;112.28;;;41.33;;
51995;SDS011;38010;53.264;6.592;2023-10-13T08:35:20;93.47;;;37.80;;
51995;SDS011;38010;53.264;6.592;2023-10-13T08:37:55;81.60;;;33.63;;
51995;SDS011;38010;53.264;6.592;2023-10-13T08:40:26;78.18;;;32.78;;
51995;SDS011;38010;53.264;6.592;2023-10-13T08:43:11;88.28;;;33.70;;
51995;SDS011;38010;53.264;6.592;2023-10-13T08:45:39;82.07;;;31.17;;
51995;SDS011;38010;53.264;6.592;2023-10-13T08:48:05;67.95;;;29.40;;
51995;SDS011;38010;53.264;6.592;2023-10-13T08:50:45;69.05;;;28.85;;
51995;SDS011;38010;53.264;6.592;2023-10-13T08:53:30;62.80;;;26.02;;
51995;SDS011;38010;53.264;6.592;2023-10-13T08:56:00;74.53;;;26.70;;
51995;SDS011;38010;53.264;6.592;2023-10-13T08:58:27;58.10;;;24.65;;
51995;SDS011;38010;53.264;6.592;2023-10-13T09:01:13;56.45;;;23.90;;
51995;SDS011;38010;53.264;6.592;2023-10-13T09:03:59;48.50;;;19.25;;
51995;SDS011;38010;53.264;6.592;2023-10-13T09:06:53;45.90;;;19.60;;
51995;SDS011;38010;53.264;6.592;2023-10-13T09:09:44;48.50;;;19.88;;
51995;SDS011;38010;53.264;6.592;2023-10-13T09:12:29;45.00;;;18.02;;
51995;SDS011;38010;53.264;6.592;2023-10-13T09:15:02;33.47;;;16.20;;
51995;SDS011;38010;53.264;6.592;2023-10-13T09:17:41;30.13;;;14.77;;
51995;SDS011;38010;53.264;6.592;2023-10-13T09:20:12;37.05;;;16.98;;
51995;SDS011;38010;53.264;6.592;2023-10-13T09:22:57;32.20;;;14.38;;
51995;SDS011;38010;53.264;6.592;2023-10-13T09:25:26;31.70;;;13.07;;
51995;SDS011;38010;53.264;6.592;2023-10-13T09:27:58;28.30;;;12.70;;
51995;SDS011;38010;53.264;6.592;2023-10-13T09:30:25;29.23;;;13.65;;
51995;SDS011;38010;53.264;6.592;2023-10-13T09:33:00;25.90;;;12.40;;
51995;SDS011;38010;53.264;6.592;2023-10-13T09:35:27;25.77;;;11.88;;
51995;SDS011;38010;53.264;6.592;2023-10-13T09:37:53;27.60;;;13.55;;
51995;SDS011;38010;53.264;6.592;2023-10-13T09:40:22;27.88;;;13.00;;
51995;SDS011;38010;53.264;6.592;2023-10-13T09:43:11;23.13;;;10.65;;
51995;SDS011;38010;53.264;6.592;2023-10-13T09:45:43;20.17;;;8.48;;
51995;SDS011;38010;53.264;6.592;2023-10-13T09:48:39;21.95;;;9.25;;
51995;SDS011;38010;53.264;6.592;2023-10-13T09:51:14;22.48;;;8.95;;
51995;SDS011;38010;53.264;6.592;2023-10-13T09:53:47;16.77;;;8.23;;
51995;SDS011;38010;53.264;6.592;2023-10-13T09:56:16;19.40;;;8.95;;
51995;SDS011;38010;53.264;6.592;2023-10-13T09:58:53;14.63;;;7.65;;
51995;SDS011;38010;53.264;6.592;2023-10-13T10:01:27;14.70;;;7.70;;
51995;SDS011;38010;53.264;6.592;2023-10-13T10:04:10;17.15;;;7.50;;
51995;SDS011;38010;53.264;6.592;2023-10-13T10:06:51;16.70;;;7.35;;
51995;SDS011;38010;53.264;6.592;2023-10-13T10:09:17;15.38;;;5.93;;
51995;SDS011;38010;53.264;6.592;2023-10-13T10:14:24;14.50;;;6.53;;
51995;SDS011;38010;53.264;6.592;2023-10-13T10:17:04;12.82;;;5.75;;
51995;SDS011;38010;53.264;6.592;2023-10-13T10:19:46;14.90;;;6.50;;
51995;SDS011;38010;53.264;6.592;2023-10-13T10:22:12;14.27;;;5.90;;
51995;SDS011;38010;53.264;6.592;2023-10-13T10:24:42;13.02;;;5.70;;
51995;SDS011;38010;53.264;6.592;2023-10-13T10:27:09;13.52;;;5.85;;
51995;SDS011;38010;53.264;6.592;2023-10-13T10:29:55;12.82;;;5.53;;
51995;SDS011;38010;53.264;6.592;2023-10-13T10:32:21;11.77;;;5.30;;
51995;SDS011;38010;53.264;6.592;2023-10-13T10:38:26;9.57;;;4.75;;
51995;SDS011;38010;53.264;6.592;2023-10-13T10:43:40;9.68;;;4.68;;
51995;SDS011;38010;53.264;6.592;2023-10-13T10:46:17;9.35;;;4.68;;
51995;SDS011;38010;53.264;6.592;2023-10-13T10:48:44;11.65;;;5.07;;
51995;SDS011;38010;53.264;6.592;2023-10-13T10:51:10;10.00;;;4.80;;
51995;SDS011;38010;53.264;6.592;2023-10-13T10:53:46;15.52;;;4.90;;
51995;SDS011;38010;53.264;6.592;2023-10-13T10:56:14;8.90;;;4.25;;
51995;SDS011;38010;53.264;6.592;2023-10-13T10:58:53;10.85;;;5.15;;
51995;SDS011;38010;53.264;6.592;2023-10-13T11:01:26;9.13;;;4.90;;
51995;SDS011;38010;53.264;6.592;2023-10-13T11:04:02;9.40;;;4.95;;
51995;SDS011;38010;53.264;6.592;2023-10-13T11:07:01;8.18;;;4.30;;
51995;SDS011;38010;53.264;6.592;2023-10-13T11:11:57;9.88;;;4.38;;
51995;SDS011;38010;53.264;6.592;2023-10-13T11:15:00;10.52;;;4.35;;
51995;SDS011;38010;53.264;6.592;2023-10-13T11:17:27;11.95;;;4.57;;
51995;SDS011;38010;53.264;6.592;2023-10-13T11:20:13;10.80;;;4.43;;
51995;SDS011;38010;53.264;6.592;2023-10-13T11:22:46;9.52;;;4.32;;
51995;SDS011;38010;53.264;6.592;2023-10-13T11:25:19;11.63;;;4.47;;
51995;SDS011;38010;53.264;6.592;2023-10-13T11:27:48;9.27;;;4.85;;
51995;SDS011;38010;53.264;6.592;2023-10-13T11:30:14;8.50;;;4.30;;
51995;SDS011;38010;53.264;6.592;2023-10-13T11:32:45;9.55;;;4.53;;
51995;SDS011;38010;53.264;6.592;2023-10-13T11:35:12;9.18;;;3.90;;
51995;SDS011;38010;53.264;6.592;2023-10-13T11:37:50;7.70;;;4.70;;
51995;SDS011;38010;53.264;6.592;2023-10-13T11:40:38;9.77;;;4.53;;
51995;SDS011;38010;53.264;6.592;2023-10-13T11:43:33;7.25;;;4.18;;
51995;SDS011;38010;53.264;6.592;2023-10-13T11:46:10;10.45;;;4.43;;
51995;SDS011;38010;53.264;6.592;2023-10-13T11:48:36;8.63;;;4.05;;
51995;SDS011;38010;53.264;6.592;2023-10-13T11:51:03;11.85;;;4.20;;
51995;SDS011;38010;53.264;6.592;2023-10-13T11:53:35;8.10;;;4.32;;
51995;SDS011;38010;53.264;6.592;2023-10-13T11:56:02;12.85;;;5.03;;
51995;SDS011;38010;53.264;6.592;2023-10-13T11:58:35;10.95;;;4.70;;
51995;SDS011;38010;53.264;6.592;2023-10-13T12:01:01;10.25;;;4.22;;
51995;SDS011;38010;53.264;6.592;2023-10-13T12:03:40;7.95;;;4.60;;
51995;SDS011;38010;53.264;6.592;2023-10-13T12:06:25;19.17;;;4.90;;
51995;SDS011;38010;53.264;6.592;2023-10-13T12:09:12;11.00;;;4.70;;
51995;SDS011;38010;53.264;6.592;2023-10-13T12:11:41;9.20;;;4.70;;
51995;SDS011;38010;53.264;6.592;2023-10-13T12:14:10;8.23;;;4.05;;
51995;SDS011;38010;53.264;6.592;2023-10-13T12:16:48;11.00;;;5.25;;
51995;SDS011;38010;53.264;6.592;2023-10-13T12:19:18;9.65;;;4.75;;
51995;SDS011;38010;53.264;6.592;2023-10-13T12:21:48;10.95;;;4.13;;
51995;SDS011;38010;53.264;6.592;2023-10-13T12:24:15;13.40;;;5.18;;
51995;SDS011;38010;53.264;6.592;2023-10-13T12:26:56;11.23;;;3.95;;
51995;SDS011;38010;53.264;6.592;2023-10-13T12:29:25;8.10;;;4.47;;
51995;SDS011;38010;53.264;6.592;2023-10-13T12:31:54;11.77;;;4.53;;
51995;SDS011;38010;53.264;6.592;2023-10-13T12:34:33;8.73;;;4.20;;
51995;SDS011;38010;53.264;6.592;2023-10-13T12:37:18;8.93;;;4.50;;
51995;SDS011;38010;53.264;6.592;2023-10-13T12:40:05;9.32;;;4.30;;
51995;SDS011;38010;53.264;6.592;2023-10-13T12:42:51;9.15;;;4.38;;
51995;SDS011;38010;53.264;6.592;2023-10-13T12:45:38;9.18;;;4.88;;
51995;SDS011;38010;53.264;6.592;2023-10-13T12:48:23;9.25;;;4.50;;
51995;SDS011;38010;53.264;6.592;2023-10-13T12:51:09;11.27;;;5.25;;
51995;SDS011;38010;53.264;6.592;2023-10-13T12:53:54;10.38;;;5.13;;
51995;SDS011;38010;53.264;6.592;2023-10-13T12:56:29;10.40;;;4.63;;
51995;SDS011;38010;53.264;6.592;2023-10-13T12:58:55;8.85;;;4.90;;
51995;SDS011;38010;53.264;6.592;2023-10-13T13:01:22;12.35;;;5.45;;
51995;SDS011;38010;53.264;6.592;2023-10-13T13:03:50;11.02;;;4.50;;
51995;SDS011;38010;53.264;6.592;2023-10-13T13:06:22;9.20;;;4.82;;
51995;SDS011;38010;53.264;6.592;2023-10-13T13:08:55;9.88;;;4.82;;
51995;SDS011;38010;53.264;6.592;2023-10-13T13:11:22;9.35;;;5.13;;
51995;SDS011;38010;53.264;6.592;2023-10-13T13:13:48;10.57;;;4.90;;
51995;SDS011;38010;53.264;6.592;2023-10-13T13:16:18;13.70;;;6.55;;
51995;SDS011;38010;53.264;6.592;2023-10-13T13:18:49;9.35;;;4.85;;
51995;SDS011;38010;53.264;6.592;2023-10-13T13:21:15;10.55;;;4.88;;
51995;SDS011;38010;53.264;6.592;2023-10-13T13:23:53;11.25;;;5.55;;
51995;SDS011;38010;53.264;6.592;2023-10-13T13:26:20;9.13;;;5.25;;
51995;SDS011;38010;53.264;6.592;2023-10-13T13:28:47;9.25;;;5.78;;
51995;SDS011;38010;53.264;6.592;2023-10-13T13:31:20;12.15;;;6.07;;
51995;SDS011;38010;53.264;6.592;2023-10-13T13:33:54;11.70;;;5.82;;
51995;SDS011;38010;53.264;6.592;2023-10-13T13:36:21;11.27;;;6.18;;
51995;SDS011;38010;53.264;6.592;2023-10-13T13:38:47;8.90;;;5.53;;
51995;SDS011;38010;53.264;6.592;2023-10-13T13:41:15;13.57;;;5.65;;
51995;SDS011;38010;53.264;6.592;2023-10-13T13:43:45;12.45;;;6.03;;
51995;SDS011;38010;53.264;6.592;2023-10-13T13:46:24;9.27;;;5.63;;
51995;SDS011;38010;53.264;6.592;2023-10-13T13:48:52;9.50;;;6.30;;
51995;SDS011;38010;53.264;6.592;2023-10-13T13:51:29;10.77;;;5.80;;
51995;SDS011;38010;53.264;6.592;2023-10-13T13:53:57;11.10;;;5.80;;
51995;SDS011;38010;53.264;6.592;2023-10-13T13:56:24;11.13;;;6.22;;
51995;SDS011;38010;53.264;6.592;2023-10-13T13:58:52;11.35;;;6.50;;
51995;SDS011;38010;53.264;6.592;2023-10-13T14:01:19;13.57;;;7.00;;
51995;SDS011;38010;53.264;6.592;2023-10-13T14:03:51;12.82;;;6.50;;
51995;SDS011;38010;53.264;6.592;2023-10-13T14:06:22;15.20;;;6.70;;
51995;SDS011;38010;53.264;6.592;2023-10-13T14:08:49;11.40;;;6.10;;
51995;SDS011;38010;53.264;6.592;2023-10-13T14:11:19;11.13;;;5.90;;
51995;SDS011;38010;53.264;6.592;2023-10-13T14:16:37;10.48;;;6.20;;
51995;SDS011;38010;53.264;6.592;2023-10-13T14:19:09;12.35;;;6.18;;
51995;SDS011;38010;53.264;6.592;2023-10-13T14:21:35;14.48;;;6.65;;
51995;SDS011;38010;53.264;6.592;2023-10-13T14:24:01;8.98;;;5.70;;
51995;SDS011;38010;53.264;6.592;2023-10-13T14:26:28;13.25;;;6.35;;
51995;SDS011;38010;53.264;6.592;2023-10-13T14:28:55;12.98;;;6.15;;
51995;SDS011;38010;53.264;6.592;2023-10-13T14:31:31;10.60;;;5.75;;
51995;SDS011;38010;53.264;6.592;2023-10-13T14:33:57;12.73;;;6.78;;
51995;SDS011;38010;53.264;6.592;2023-10-13T14:36:24;15.02;;;6.80;;
51995;SDS011;38010;53.264;6.592;2023-10-13T14:38:53;14.05;;;6.63;;
51995;SDS011;38010;53.264;6.592;2023-10-13T14:41:20;12.77;;;6.45;;
51995;SDS011;38010;53.264;6.592;2023-10-13T14:43:46;9.90;;;5.95;;
51995;SDS011;38010;53.264;6.592;2023-10-13T14:46:15;10.88;;;5.85;;
51995;SDS011;38010;53.264;6.592;2023-10-13T14:48:44;12.70;;;6.25;;
51995;SDS011;38010;53.264;6.592;2023-10-13T14:51:13;13.93;;;7.15;;
51995;SDS011;38010;53.264;6.592;2023-10-13T14:53:42;14.93;;;6.25;;
51995;SDS011;38010;53.264;6.592;2023-10-13T14:56:12;10.15;;;6.20;;
51995;SDS011;38010;53.264;6.592;2023-10-13T14:58:38;11.40;;;5.72;;
51995;SDS011;38010;53.264;6.592;2023-10-13T15:01:17;12.07;;;6.18;;
51995;SDS011;38010;53.264;6.592;2023-10-13T15:03:44;13.77;;;6.90;;
51995;SDS011;38010;53.264;6.592;2023-10-13T15:08:46;13.13;;;5.97;;
51995;SDS011;38010;53.264;6.592;2023-10-13T15:11:15;10.38;;;6.28;;
51995;SDS011;38010;53.264;6.592;2023-10-13T15:13:45;12.30;;;6.15;;
51995;SDS011;38010;53.264;6.592;2023-10-13T15:16:15;9.93;;;6.57;;
51995;SDS011;38010;53.264;6.592;2023-10-13T15:18:49;10.13;;;6.15;;
51995;SDS011;38010;53.264;6.592;2023-10-13T15:21:20;10.23;;;6.03;;
51995;SDS011;38010;53.264;6.592;2023-10-13T15:23:48;12.45;;;5.65;;
51995;SDS011;38010;53.264;6.592;2023-10-13T15:26:16;10.23;;;5.55;;
51995;SDS011;38010;53.264;6.592;2023-10-13T15:28:42;11.60;;;6.82;;
51995;SDS011;38010;53.264;6.592;2023-10-13T15:31:15;13.50;;;6.85;;
51995;SDS011;38010;53.264;6.592;2023-10-13T15:33:51;10.30;;;5.28;;
51995;SDS011;38010;53.264;6.592;2023-10-13T15:36:20;11.02;;;6.30;;
51995;SDS011;38010;53.264;6.592;2023-10-13T15:38:48;10.25;;;6.30;;
51995;SDS011;38010;53.264;6.592;2023-10-13T15:43:49;13.07;;;6.05;;
51995;SDS011;38010;53.264;6.592;2023-10-13T15:46:17;11.13;;;6.03;;
51995;SDS011;38010;53.264;6.592;2023-10-13T15:48:43;10.90;;;5.57;;